Station: Robe Airport  

  Atmospheric Gas Attenuation - ITU Rec 676-11   ----------------- dB/100km -----------------
Date Time Temp RH % AH g/m3 Dew Point Wind Direction Speed kph Gust kph Barometer mB Rainfall Since 9am 24GHz 47GHz 76GHz 122GHz 134GHz 241GHz
05/05 21:10 14.3 89 10.93 12.5 6 7 1023 0.2 24.5 30.0 49.7 130.8 130.6 451.2
05/05 21:00 14.3 89 10.93 12.5 9 13 1023.1 0.2 24.5 30.0 49.7 130.9 130.6 451.2
05/05 20:50 14.2 89 10.87 12.5 11 11 1023.1 0.2 24.4 30.0 49.5 130.3 130.0 448.8
05/05 20:40 13.9 89 10.67 12.2 11 13 1023.1 0.2 24.0 29.7 48.9 128.5 127.6 440.5
05/05 20:30 13.6 90 10.59 12 11 15 1023.1 0.2 23.8 29.7 48.7 128.1 127.0 438.2
05/05 20:20 13.9 89 10.67 12.2 9 11 1023.1 0.2 24.0 29.7 48.9 128.5 127.6 440.5
05/05 20:10 14 89 10.74 12.3 4 6 1023.1 0.2 24.1 29.8 49.1 129.1 128.4 443.4
05/05 20:00 14.1 90 10.92 12.5 9 13 1023.1 0.2 24.5 30.1 49.8 131.1 130.8 451.9
05/05 19:50 14.3 89 10.93 12.6 11 11 1023.2 0.2 24.5 30.1 49.8 130.9 130.7 451.2
05/05 19:40 13.4 88 10.23 11.4 0 0 1023.2 0.2 23.1 29.1 47.3 124.2 122.2 421.5
05/05 19:30 12.9 87 9.81 10.8 0 0 1023.2 0.2 22.2 28.6 45.8 120.2 117.0 403.4
05/05 19:20 12.9 86 9.69 10.6 0 0 1023.1 0 22.0 28.4 45.2 118.8 115.3 397.5
05/05 19:10 13.6 86 10.12 11.3 0 0 1023 0 22.8 28.9 46.7 122.6 120.3 414.9
05/05 19:00 13.8 86 10.25 11.5 0 2 1023 0 23.1 29.0 47.1 123.8 121.8 420.2
05/05 18:50 14.1 86 10.44 11.8 2 2 1022.9 0 23.5 29.3 47.7 125.5 124.0 427.9
05/05 18:40 14.2 85 10.38 11.7 7 7 1023 0 23.4 29.1 47.4 124.7 123.0 424.4
05/05 18:30 13.8 87 10.37 11.7 2 7 1022.8 0 23.4 29.2 47.6 125.2 123.5 426.1
05/05 18:20 14 88 10.61 12 0 0 1022.7 0 23.9 29.6 48.5 127.6 126.5 436.8
05/05 18:10 14 86 10.37 11.8 0 0 1022.6 0 23.4 29.2 47.5 124.8 123.1 424.9
05/05 18:00 14.1 87 10.56 12 0 0 1022.6 0 23.8 29.5 48.2 126.8 125.7 433.8
05/05 17:50 14.1 86 10.44 11.9 0 0 1022.6 0 23.5 29.2 47.7 125.5 124.0 427.8
05/05 17:40 14.2 87 10.62 12 4 4 1022.6 0 23.9 29.5 48.4 127.4 126.3 436.2
05/05 17:30 14.3 87 10.69 12.2 2 6 1022.5 0 24.0 29.6 48.7 128.0 127.2 439.0
05/05 17:20 14.2 87 10.62 12 6 6 1022.5 0 23.9 29.5 48.4 127.4 126.3 436.1
05/05 17:10 13.9 86 10.31 11.7 6 6 1022.4 0 23.2 29.1 47.3 124.3 122.4 422.4
05/05 17:00 13.8 87 10.37 11.7 7 9 1022.4 0 23.4 29.2 47.6 125.1 123.4 425.9
05/05 16:50 14 86 10.37 11.8 9 11 1022.4 0 23.4 29.1 47.5 124.8 123.1 424.8
05/05 16:40 14.2 87 10.62 12 7 7 1022.3 0 23.9 29.5 48.4 127.3 126.3 436.1
05/05 16:30 14.2 87 10.62 12.1 6 9 1022.3 0 23.9 29.5 48.4 127.3 126.3 436.1
05/05 16:20 14.4 87 10.75 12.2 7 9 1022.3 0 24.1 29.7 48.9 128.5 127.8 441.4
05/05 16:10 14.5 84 10.45 11.8 9 11 1022.4 0 23.5 29.1 47.5 124.9 123.4 426.0
05/05 16:00 15.2 77 9.99 11.2 9 19 1022.4 0 22.5 28.1 45.2 118.6 116.0 400.0
05/05 15:50 15.3 75 9.79 10.9 9 11 1022.3 0 22.0 27.7 44.3 116.3 113.1 389.9
05/05 15:40 15.9 71 9.61 10.8 9 11 1022.3 0 21.6 27.3 43.2 113.4 109.8 378.5
05/05 15:30 15.9 73 9.89 11.1 9 13 1022.2 0 22.2 27.7 44.3 116.5 113.5 391.7
05/05 15:20 16.1 72 9.87 11 7 9 1022.2 0 22.2 27.6 44.1 115.9 113.0 389.7
05/05 15:10 16.1 72 9.87 11.2 7 7 1022.1 0 22.2 27.6 44.1 115.9 113.0 389.7
05/05 15:00 15.7 74 9.9 11.1 13 19 1022 0 22.3 27.8 44.5 116.8 114.0 393.1
05/05 14:50 15.9 73 9.89 11.2 17 20 1022 0 22.2 27.7 44.3 116.4 113.5 391.6
05/05 14:40 15.9 71 9.61 10.8 9 11 1021.9 0 21.6 27.2 43.2 113.4 109.7 378.4
05/05 14:30 15.8 72 9.69 10.8 13 19 1021.8 0 21.8 27.4 43.6 114.4 111.0 382.6
05/05 14:20 16 71 9.67 10.7 15 17 1021.7 0 21.7 27.3 43.4 113.9 110.4 380.7
05/05 14:10 16.9 70 10.07 11.4 13 17 1021.6 0 22.6 27.7 44.5 116.9 114.4 394.9
05/05 14:00 16.6 69 9.75 10.9 11 19 1021.6 0 21.9 27.2 43.3 113.8 110.6 381.4
05/05 13:50 16.6 67 9.46 10.4 13 17 1021.6 0 21.3 26.8 42.2 110.7 106.8 368.0
05/05 13:40 16.4 67 9.35 10.4 17 20 1021.6 0 21.0 26.7 41.8 109.8 105.6 363.9
05/05 13:30 16.6 68 9.61 10.7 11 19 1021.6 0 21.6 27.0 42.8 112.3 108.7 374.9
05/05 13:20 17.2 64 9.37 10.3 6 7 1021.7 0 21.0 26.5 41.5 108.9 104.8 361.1
05/05 13:10 17.4 65 9.63 10.7 9 11 1021.7 0 21.6 26.8 42.4 111.4 107.9 372.1
05/05 13:00 17.1 64 9.32 10.2 9 15 1021.8 0 20.9 26.4 41.4 108.6 104.3 359.3
05/05 12:50 16.4 63 8.79 9.5 6 9 1021.8 0 19.9 25.8 39.6 103.9 98.3 338.4
05/05 12:40 17.4 69 10.23 11.8 11 13 1021.9 0 22.9 27.8 44.9 117.9 115.9 400.0
05/05 12:30 16.2 66 9.1 9.8 11 17 1022 0 20.5 26.3 41.0 107.5 102.6 353.4
05/05 12:20 16.6 67 9.46 10.6 13 17 1022.1 0 21.3 26.8 42.2 110.8 106.8 368.2
05/05 12:10 16.1 66 9.05 9.9 9 13 1022.3 0 20.4 26.3 40.8 107.1 102.1 351.7
05/05 12:00 15.8 66 8.88 9.5 11 19 1022.4 0 20.1 26.1 40.3 105.7 100.3 345.2
05/05 11:50 15.9 65 8.8 9.5 7 9 1022.4 0 19.9 25.9 39.9 104.8 99.1 341.1
05/05 11:40 16 66 8.99 9.8 7 7 1022.4 0 20.3 26.2 40.7 106.6 101.5 349.4
05/05 11:30 15.9 67 9.07 9.8 9 15 1022.4 0 20.5 26.4 41.0 107.6 102.6 353.5
05/05 11:20 15.8 67 9.02 9.7 11 13 1022.5 0 20.4 26.3 40.9 107.2 102.1 351.7
05/05 11:10 16.1 69 9.46 10.4 9 11 1022.5 0 21.3 27.0 42.5 111.5 107.5 370.6
05/05 11:00 15.9 67 9.07 9.8 7 13 1022.5 0 20.5 26.4 41.0 107.6 102.6 353.5
05/05 10:50 15.9 66 8.94 9.7 6 7 1022.6 0 20.2 26.2 40.5 106.3 100.9 347.6
05/05 10:40 15.6 68 9.04 9.7 7 9 1022.5 0 20.4 26.4 41.1 107.7 102.6 353.5
05/05 10:30 15.4 68 8.93 9.5 11 19 1022.4 0 20.2 26.3 40.7 106.8 101.4 349.3
05/05 10:20 15.4 68 8.93 9.5 11 13 1022.3 0 20.2 26.3 40.7 106.8 101.4 349.3
05/05 10:10 15.4 69 9.07 9.7 15 17 1022.3 0 20.5 26.5 41.3 108.3 103.3 355.7
05/05 10:00 15.8 74 9.96 11.2 7 15 1022.3 0 22.4 27.9 44.7 117.4 114.6 395.5
05/05 09:50 15.5 71 9.38 10.4 15 17 1022.2 0 21.2 27.0 42.5 111.5 107.3 369.6
05/05 09:40 15.8 75 10.1 11.5 6 6 1022.1 0 22.7 28.1 45.3 118.9 116.5 402.1
05/05 09:30 14.7 77 9.69 10.7 7 13 1022.2 0 21.9 27.8 44.2 116.0 112.6 388.1
05/05 09:20 14.7 79 9.95 11.1 9 9 1022.2 0 22.4 28.2 45.3 118.9 116.1 400.6
05/05 09:10 14.2 80 9.77 10.9 13 19 1022.1 0 22.1 28.0 44.8 117.7 114.4 394.5
05/05 09:00 13.9 84 10.07 11.2 9 15 1022.1 0 22.7 28.7 46.2 121.5 119.0 410.6
05/05 08:50 13.7 84 9.95 11 15 17 1022 2.4 22.5 28.5 45.8 120.4 117.7 405.7
05/05 08:40 14.5 79 9.83 10.9 19 22 1022 2.4 22.2 28.0 44.9 117.9 114.8 395.8
05/05 08:30 14.6 77 9.64 10.6 7 13 1021.8 2.4 21.8 27.7 44.0 115.6 112.0 386.1
05/05 08:20 14.6 75 9.39 10.2 7 9 1021.7 2.4 21.2 27.3 43.0 112.8 108.6 374.2
05/05 08:10 14.4 79 9.77 10.8 6 7 1021.5 2.4 22.0 28.0 44.7 117.3 114.1 393.3
05/05 08:00 14.1 80 9.71 10.7 9 15 1021.4 2.4 21.9 27.9 44.6 117.1 113.7 391.9
05/05 07:50 13.6 81 9.53 10.4 9 15 1021.3 2.4 21.6 27.8 44.1 115.8 111.9 385.7
05/05 07:40 12.9 85 9.58 10.4 7 9 1021.2 2.4 21.7 28.1 44.7 117.4 113.6 391.5
05/05 07:30 13.3 85 9.82 10.8 13 20 1021 2.4 22.2 28.4 45.5 119.5 116.4 401.1
05/05 07:20 13.8 83 9.89 10.9 17 22 1020.8 2.4 22.3 28.3 45.5 119.5 116.5 401.9
05/05 07:10 13.3 81 9.36 10.1 7 9 1020.6 2.4 21.2 27.6 43.5 114.2 109.9 378.7
05/05 07:00 13 82 9.3 10 7 13 1020.4 2.4 21.1 27.6 43.4 114.0 109.5 377.2
05/05 06:50 12.7 83 9.24 9.9 6 7 1020.3 2.4 21.0 27.6 43.3 113.8 109.1 375.8
05/05 06:40 12.7 83 9.24 9.9 4 4 1020.2 2.4 21.0 27.5 43.3 113.7 109.1 375.7
05/05 06:30 12.6 83 9.18 9.8 2 4 1020 2.4 20.9 27.5 43.1 113.2 108.4 373.3
05/05 06:20 12.7 82 9.13 9.7 4 4 1019.9 2.4 20.8 27.4 42.8 112.5 107.6 370.4
05/05 06:10 12.8 80 8.96 9.4 6 6 1019.8 2.4 20.4 27.0 42.1 110.4 105.1 361.7
05/05 06:00 13 79 8.96 9.4 4 6 1019.8 2.4 20.4 27.0 42.0 110.2 104.8 360.8
05/05 05:50 13.1 79 9.02 9.5 4 6 1019.8 2.4 20.5 27.0 42.2 110.7 105.5 363.2
05/05 05:40 13.1 79 9.02 9.5 4 6 1019.7 2.4 20.5 27.0 42.2 110.7 105.5 363.2
05/05 05:30 13.1 79 9.02 9.5 2 4 1019.7 2.4 20.5 27.0 42.2 110.7 105.5 363.2
05/05 05:20 13.2 78 8.96 9.4 2 4 1019.7 2.4 20.4 26.9 41.9 109.9 104.5 359.8
05/05 05:10 13.2 78 8.96 9.4 4 4 1019.8 2.4 20.4 26.9 41.9 109.9 104.6 359.9
05/05 05:00 13.3 78 9.01 9.5 7 13 1019.8 2.4 20.5 27.0 42.0 110.3 105.1 361.8
05/05 04:50 13.3 77 8.9 9.3 9 11 1019.8 2.4 20.2 26.8 41.6 109.1 103.6 356.6
05/05 04:40 13.4 74 8.6 8.8 11 15 1019.6 2.4 19.6 26.3 40.3 105.7 99.4 342.0

Last Refresh: 05-May-2026 21:14:12

Bureau of Meteorology